Auriesville, New York
Current Conditions -  °F | °C
As of 8:55 AM on Monday 24 Nov 2014 (Local Time) from KNY0 Reporting Station
Overcast Overcast  
Wind Chill: 51°   Ceiling: 3200
Heat Index: 51°   Visibility: 10mi
Dew Point: 50°   Wind: 0mph
Humidity: 97%   Direction: NA
Pressure: 29.58"   Gusts: NA
Location:  42.93°N, 74.32°W
Report Text: KNY0 241355Z AUTO 00000KT 10SM SCT002 BKN032 OVC049 11/10 A2958 RMK AO2 T01060102
Loading
Personal Weather Stations






























Interactive Weather Map New forecast layout! Learn more

10-Day Weather Forecast

Advertisements
Track Severe Weather on mobile